createdAt,value
2018-09-05T00:00:41.770Z,669.53
2018-09-05T00:03:10.230Z,696.57
2018-09-05T00:05:38.758Z,692.37
2018-09-05T00:08:07.501Z,687.57
2018-09-05T00:10:35.964Z,704.17
2018-09-05T00:13:04.483Z,663.83
2018-09-05T00:15:33.015Z,682.60
2018-09-05T00:18:01.552Z,661.93
2018-09-05T00:20:29.993Z,662.30
2018-09-05T00:22:58.483Z,675.97
2018-09-05T00:25:26.989Z,690.83
2018-09-05T00:27:55.477Z,645.47
2018-09-05T00:30:23.971Z,676.90
2018-09-05T00:32:52.443Z,644.53
2018-09-05T00:35:20.899Z,657.23
2018-09-05T00:37:49.585Z,644.30
2018-09-05T00:40:18.065Z,687.10
2018-09-05T00:42:46.550Z,658.03
2018-09-05T00:45:15.083Z,640.97
2018-09-05T00:47:43.569Z,647.03
2018-09-05T00:50:12.074Z,633.13
2018-09-05T00:52:40.565Z,624.17
2018-09-05T00:55:09.076Z,647.57
2018-09-05T00:57:37.573Z,642.97
2018-09-05T01:00:06.251Z,629.03
2018-09-05T01:02:34.752Z,620.47
2018-09-05T01:05:03.241Z,668.07
2018-09-05T01:07:31.790Z,659.40
2018-09-05T01:10:00.277Z,626.67
2018-09-05T01:12:28.761Z,649.90
2018-09-05T01:14:57.270Z,642.43
2018-09-05T01:17:25.739Z,657.97
2018-09-05T01:19:54.226Z,647.90
2018-09-05T01:22:22.742Z,678.50
2018-09-05T01:24:51.272Z,656.60
2018-09-05T01:27:19.791Z,669.87
2018-09-05T01:29:48.328Z,683.87
2018-09-05T01:32:16.927Z,679.50
2018-09-05T01:34:45.427Z,638.73
2018-09-05T01:37:13.926Z,658.77
2018-09-05T01:39:42.401Z,673.53
2018-09-05T01:42:11.237Z,660.90
2018-09-05T01:44:40.231Z,681.33
2018-09-05T01:47:08.701Z,677.00
2018-09-05T01:49:37.212Z,672.40
2018-09-05T01:52:06.336Z,678.17
2018-09-05T01:54:34.856Z,666.97
2018-09-05T01:57:03.378Z,671.50
2018-09-05T01:59:31.910Z,653.47
2018-09-05T02:02:00.808Z,654.33
2018-09-05T02:04:29.288Z,674.77
2018-09-05T02:06:57.857Z,662.37
2018-09-05T02:09:26.352Z,688.23
2018-09-05T02:11:54.850Z,662.87
2018-09-05T02:14:23.324Z,693.57
2018-09-05T02:16:51.838Z,663.97
2018-09-05T02:19:20.341Z,660.67
2018-09-05T02:21:48.821Z,620.53
2018-09-05T02:24:17.350Z,624.20
2018-09-05T02:26:45.852Z,635.80
2018-09-05T02:29:14.399Z,616.80
2018-09-05T02:31:42.866Z,628.80
2018-09-05T02:34:11.431Z,594.67
2018-09-05T02:36:40.025Z,620.80
2018-09-05T02:39:09.839Z,580.47
2018-09-05T02:41:38.340Z,573.93
2018-09-05T02:44:12.414Z,571.93
2018-09-05T02:46:41.036Z,567.13
2018-09-05T02:49:09.980Z,574.67
2018-09-05T02:51:38.547Z,567.93
2018-09-05T02:54:07.156Z,579.07
2018-09-05T02:56:35.667Z,578.33
2018-09-05T02:59:04.220Z,570.97
2018-09-05T03:01:32.750Z,592.27
2018-09-05T03:04:01.293Z,573.83
2018-09-05T03:06:29.787Z,609.67
2018-09-05T03:08:58.273Z,614.57
2018-09-05T03:11:26.794Z,636.97
2018-09-05T03:13:55.316Z,656.47
2018-09-05T03:16:23.783Z,671.47
2018-09-05T03:18:52.407Z,656.03
2018-09-05T03:21:21.004Z,707.50
2018-09-05T03:23:49.544Z,735.70
2018-09-05T03:26:18.091Z,753.10
2018-09-05T03:28:46.581Z,778.30
2018-09-05T03:31:15.094Z,791.93
2018-09-05T03:33:43.589Z,810.93
2018-09-05T03:36:12.108Z,829.40
2018-09-05T03:41:15.443Z,837.33
2018-09-05T03:43:44.065Z,823.27
2018-09-05T03:46:12.784Z,827.83
2018-09-05T03:48:41.458Z,794.93
2018-09-05T03:51:10.180Z,750.73
2018-09-05T03:53:38.668Z,744.70
2018-09-05T03:56:07.380Z,726.17
2018-09-05T03:58:36.065Z,719.87
2018-09-05T04:01:04.669Z,695.50
2018-09-05T04:03:33.184Z,698.60
2018-09-05T04:06:01.697Z,678.57
2018-09-05T04:08:30.259Z,705.23
2018-09-05T04:10:58.809Z,680.10
2018-09-05T04:13:27.377Z,683.37
2018-09-05T04:15:55.896Z,675.77
2018-09-05T04:18:24.424Z,702.43
2018-09-05T04:20:52.904Z,705.70
2018-09-05T04:23:21.433Z,733.70
2018-09-05T04:25:49.919Z,728.00
2018-09-05T04:28:18.429Z,723.17
2018-09-05T04:30:46.885Z,743.07
2018-09-05T04:33:15.378Z,726.37
2018-09-05T04:35:43.928Z,733.53
2018-09-05T04:38:12.459Z,714.30
2018-09-05T04:40:40.950Z,694.63
2018-09-05T04:43:09.405Z,698.37
2018-09-05T04:45:37.941Z,668.13
2018-09-05T04:48:06.502Z,629.93
2018-09-05T04:50:35.034Z,632.10
2018-09-05T04:53:03.577Z,621.93
2018-09-05T04:55:32.072Z,572.63
2018-09-05T04:58:00.654Z,529.30
2018-09-05T05:00:29.161Z,510.27
2018-09-05T05:02:57.712Z,460.17
2018-09-05T05:05:26.198Z,441.70
2018-09-05T05:07:54.741Z,440.60
2018-09-05T05:10:23.274Z,414.50
2018-09-05T05:12:51.799Z,430.57
2018-09-05T05:15:20.349Z,373.93
2018-09-05T05:17:48.960Z,354.63
2018-09-05T05:20:17.484Z,313.17
2018-09-05T05:22:45.978Z,266.77
2018-09-05T05:25:14.436Z,281.97
2018-09-05T05:27:42.983Z,311.43
2018-09-05T05:30:11.494Z,309.10
2018-09-05T05:32:40.098Z,219.03
2018-09-05T05:35:08.525Z,208.63
2018-09-05T05:37:37.108Z,209.23
2018-09-05T05:40:07.651Z,226.77
2018-09-05T05:42:37.493Z,242.63
2018-09-05T05:45:06.328Z,283.60
2018-09-05T05:47:35.206Z,284.00
2018-09-05T05:50:04.208Z,327.80
2018-09-05T05:52:34.214Z,286.70
2018-09-05T05:55:03.343Z,275.23
2018-09-05T05:57:31.797Z,268.53
2018-09-05T06:00:00.618Z,256.87
2018-09-05T06:02:29.332Z,245.90
2018-09-05T06:04:57.835Z,232.97
2018-09-05T06:07:26.345Z,223.77
2018-09-05T06:09:54.840Z,237.10
2018-09-05T06:12:23.349Z,247.77
2018-09-05T06:14:51.990Z,256.63
2018-09-05T06:17:20.571Z,268.93
2018-09-05T06:19:49.241Z,279.80
2018-09-05T06:22:17.729Z,282.20
2018-09-05T06:24:46.398Z,297.13
2018-09-05T06:27:14.895Z,287.40
2018-09-05T06:29:43.346Z,307.37
2018-09-05T06:32:12.133Z,296.30
2018-09-05T06:34:40.634Z,312.67
2018-09-05T06:37:09.187Z,312.53
2018-09-05T06:39:37.742Z,290.83
2018-09-05T06:42:06.431Z,368.07
2018-09-05T06:44:34.920Z,368.43
2018-09-05T06:47:03.475Z,368.63
2018-09-05T06:49:32.282Z,383.27
2018-09-05T06:52:00.828Z,394.67
2018-09-05T06:54:29.345Z,382.80
2018-09-05T06:56:58.098Z,430.37
2018-09-05T06:59:27.162Z,451.17
2018-09-05T07:01:55.752Z,461.57
2018-09-05T07:04:24.244Z,507.17
2018-09-05T07:06:52.812Z,565.57
2018-09-05T07:09:21.324Z,558.00
2018-09-05T07:11:50.158Z,572.30
2018-09-05T07:14:18.854Z,607.27
2018-09-05T07:16:47.364Z,630.50
2018-09-05T07:19:16.154Z,646.63
2018-09-05T07:21:44.667Z,635.50
2018-09-05T07:24:13.253Z,623.07
2018-09-05T07:26:41.785Z,622.73
2018-09-05T07:29:10.326Z,612.57
2018-09-05T07:31:38.823Z,594.43
2018-09-05T07:34:07.344Z,529.37
2018-09-05T07:36:35.861Z,530.70
2018-09-05T07:39:06.713Z,561.87
2018-09-05T07:41:35.215Z,499.80
2018-09-05T07:44:03.737Z,531.43
2018-09-05T07:46:32.373Z,539.10
2018-09-05T07:49:01.200Z,546.63
2018-09-05T07:51:29.686Z,542.93
2018-09-05T07:53:58.212Z,621.57
2018-09-05T07:56:26.739Z,639.40
2018-09-05T07:58:55.445Z,665.40
2018-09-05T08:01:23.954Z,648.83
2018-09-05T08:03:52.521Z,691.10
2018-09-05T08:06:21.003Z,666.53
2018-09-05T08:08:49.579Z,686.77
2018-09-05T08:11:18.057Z,693.60
2018-09-05T08:13:46.645Z,697.23
2018-09-05T08:16:15.350Z,824.20
2018-09-05T08:18:43.869Z,869.13
2018-09-05T08:21:12.341Z,844.70
2018-09-05T08:23:40.913Z,830.63
2018-09-05T08:26:09.433Z,839.90
2018-09-05T08:28:37.966Z,813.40
2018-09-05T08:31:06.613Z,731.43
2018-09-05T08:33:35.189Z,678.53
2018-09-05T08:36:04.432Z,551.57
2018-09-05T08:38:32.884Z,503.70
2018-09-05T08:41:05.550Z,590.87
2018-09-05T08:43:34.117Z,635.23
2018-09-05T08:46:02.673Z,612.73
2018-09-05T08:48:31.172Z,649.50
2018-09-05T08:50:59.739Z,658.47
2018-09-05T08:53:28.204Z,638.30
2018-09-05T08:55:56.740Z,624.57
2018-09-05T08:58:25.233Z,567.70
2018-09-05T09:00:53.944Z,523.97
2018-09-05T09:03:22.469Z,455.97
2018-09-05T09:05:51.828Z,449.87
2018-09-05T09:08:20.423Z,508.97
2018-09-05T09:10:48.978Z,512.60
2018-09-05T09:13:17.485Z,454.67
2018-09-05T09:15:49.092Z,513.10
2018-09-05T09:18:18.735Z,525.43
2018-09-05T09:20:47.248Z,564.13
2018-09-05T09:23:15.736Z,623.43
2018-09-05T09:25:44.329Z,712.87
2018-09-05T09:28:12.812Z,750.77
2018-09-05T09:30:41.454Z,793.17
2018-09-05T09:33:10.438Z,815.00
2018-09-05T09:35:38.943Z,815.20
2018-09-05T09:38:07.616Z,837.43
2018-09-05T09:40:36.116Z,860.83
2018-09-05T09:43:04.578Z,889.93
2018-09-05T09:45:33.132Z,899.57
2018-09-05T09:48:01.768Z,925.87
2018-09-05T09:50:30.618Z,907.10
2018-09-05T09:52:59.071Z,927.00
2018-09-05T09:55:27.550Z,941.60
2018-09-05T09:57:55.996Z,978.73
2018-09-05T10:00:29.792Z,999.90
2018-09-05T10:03:03.535Z,999.90
2018-09-05T10:05:37.288Z,999.90
2018-09-05T10:08:11.252Z,999.90
2018-09-05T10:11:15.045Z,999.90
2018-09-05T10:13:49.012Z,999.90
2018-09-05T10:16:22.905Z,999.90
2018-09-05T10:18:53.150Z,999.90
2018-09-05T10:21:22.138Z,999.90
2018-09-05T10:23:50.943Z,999.90
2018-09-05T10:26:19.440Z,996.23
2018-09-05T10:28:47.942Z,999.90
2018-09-05T10:31:16.472Z,995.17
2018-09-05T10:33:45.214Z,973.07
2018-09-05T10:36:13.701Z,980.33
2018-09-05T10:38:42.267Z,977.73
2018-09-05T10:41:10.731Z,990.00
2018-09-05T10:43:39.227Z,988.43
2018-09-05T10:46:07.707Z,985.97
2018-09-05T10:48:36.233Z,993.07
2018-09-05T10:51:05.048Z,985.57
2018-09-05T10:53:33.631Z,970.10
2018-09-05T10:56:02.243Z,960.47
2018-09-05T10:58:30.731Z,961.10
2018-09-05T11:00:59.237Z,957.57
2018-09-05T11:03:27.732Z,960.63
2018-09-05T11:05:56.193Z,947.27
2018-09-05T11:08:24.688Z,938.93
2018-09-05T11:10:53.269Z,907.93
2018-09-05T11:13:21.704Z,903.53
2018-09-05T11:15:50.279Z,915.73
2018-09-05T11:18:18.787Z,926.33
2018-09-05T11:20:47.297Z,921.13
2018-09-05T11:23:15.807Z,925.60
2018-09-05T11:25:44.315Z,921.67
2018-09-05T11:28:12.820Z,906.00
2018-09-05T11:30:41.510Z,901.00
2018-09-05T11:33:10.009Z,871.07
2018-09-05T11:35:38.505Z,860.53
2018-09-05T11:38:35.753Z,886.10
2018-09-05T11:41:04.282Z,817.07
2018-09-05T11:43:32.796Z,783.17
2018-09-05T11:46:01.443Z,772.33
2018-09-05T11:48:29.936Z,779.73
2018-09-05T11:50:58.483Z,782.10
2018-09-05T11:53:26.933Z,774.53
2018-09-05T11:55:55.449Z,785.50
2018-09-05T11:58:23.960Z,791.90
2018-09-05T12:00:52.466Z,782.20
2018-09-05T12:03:20.923Z,770.50
2018-09-05T12:05:49.403Z,769.83
2018-09-05T12:08:17.893Z,772.90
2018-09-05T12:10:46.461Z,791.70
2018-09-05T12:13:14.948Z,766.70
2018-09-05T12:15:43.979Z,783.57
2018-09-05T12:18:13.878Z,794.07
2018-09-05T12:20:43.709Z,816.20
2018-09-05T12:23:13.568Z,820.03
2018-09-05T12:25:42.151Z,817.33
2018-09-05T12:28:10.738Z,831.07
2018-09-05T12:30:39.188Z,826.73
2018-09-05T12:33:07.736Z,806.40
2018-09-05T12:35:36.465Z,797.30
2018-09-05T12:38:04.953Z,805.10
2018-09-05T12:40:33.525Z,786.00
2018-09-05T12:43:02.080Z,799.77
2018-09-05T12:45:30.609Z,803.27
2018-09-05T12:47:59.072Z,813.23
2018-09-05T12:50:27.560Z,797.70
2018-09-05T12:52:56.080Z,803.17
2018-09-05T12:55:24.610Z,809.40
2018-09-05T12:57:53.087Z,815.50
2018-09-05T13:00:21.681Z,816.03
2018-09-05T13:02:50.200Z,763.60
2018-09-05T13:05:18.669Z,790.27
2018-09-05T13:07:47.201Z,798.73
2018-09-05T13:10:15.715Z,796.77
2018-09-05T13:12:44.172Z,774.73
2018-09-05T13:15:12.686Z,806.93
2018-09-05T13:17:41.170Z,809.60
2018-09-05T13:20:09.651Z,816.17
2018-09-05T13:22:38.152Z,804.40
2018-09-05T13:25:06.705Z,800.87
2018-09-05T13:27:35.219Z,808.10
2018-09-05T13:30:03.760Z,805.87
2018-09-05T13:32:32.252Z,771.63
2018-09-05T13:35:00.768Z,743.20
2018-09-05T13:37:29.231Z,717.73
2018-09-05T13:39:57.731Z,689.27
2018-09-05T13:42:26.203Z,674.23
2018-09-05T13:44:54.718Z,665.63
2018-09-05T13:47:23.313Z,663.70
2018-09-05T13:49:51.812Z,656.93
2018-09-05T13:52:20.539Z,638.17
2018-09-05T13:54:49.072Z,642.37
2018-09-05T13:57:17.558Z,641.27
2018-09-05T13:59:46.098Z,635.17
2018-09-05T14:02:14.576Z,636.63
2018-09-05T14:04:43.060Z,652.07
2018-09-05T14:07:11.588Z,642.07
2018-09-05T14:09:40.095Z,643.80
2018-09-05T14:12:08.786Z,667.53
2018-09-05T14:14:37.274Z,681.07
2018-09-05T14:17:05.896Z,707.83
2018-09-05T14:19:34.375Z,723.93
2018-09-05T14:22:02.884Z,719.77
2018-09-05T14:24:31.457Z,745.40
2018-09-05T14:26:59.941Z,719.87
2018-09-05T14:29:28.479Z,740.50
2018-09-05T14:31:56.943Z,761.03
2018-09-05T14:34:25.463Z,767.00
2018-09-05T14:36:54.025Z,801.60
2018-09-05T14:39:22.487Z,801.30
2018-09-05T14:41:51.026Z,805.20
2018-09-05T14:44:19.508Z,805.10
2018-09-05T14:46:48.017Z,809.83
2018-09-05T14:49:16.533Z,814.47
2018-09-05T14:51:45.028Z,809.43
2018-09-05T14:54:13.513Z,808.80
2018-09-05T14:56:42.023Z,793.17
2018-09-05T14:59:10.461Z,794.00
2018-09-05T15:01:38.987Z,788.60
2018-09-05T15:04:07.547Z,799.60
2018-09-05T15:06:36.229Z,799.20
2018-09-05T15:09:08.099Z,773.93
2018-09-05T15:11:36.733Z,781.43
2018-09-05T15:14:05.336Z,785.50
2018-09-05T15:16:33.849Z,780.97
2018-09-05T15:19:02.369Z,782.53
2018-09-05T15:21:30.929Z,785.67
2018-09-05T15:23:59.434Z,791.73
2018-09-05T15:26:27.938Z,791.57
2018-09-05T15:28:56.452Z,797.67
2018-09-05T15:31:24.954Z,785.53
2018-09-05T15:33:53.395Z,766.97
2018-09-05T15:36:22.003Z,750.60
2018-09-05T15:38:50.499Z,732.53
2018-09-05T15:41:18.963Z,730.47
2018-09-05T15:43:47.464Z,728.80
2018-09-05T15:46:15.935Z,719.83
2018-09-05T15:48:44.650Z,746.67
2018-09-05T15:51:13.132Z,736.93
2018-09-05T15:53:41.659Z,735.17
2018-09-05T15:56:10.132Z,740.47
2018-09-05T15:58:38.667Z,745.23
2018-09-05T16:01:07.155Z,748.53
2018-09-05T16:03:35.660Z,749.07
2018-09-05T16:06:04.215Z,775.63
2018-09-05T16:08:32.716Z,773.27
2018-09-05T16:11:01.223Z,783.17
2018-09-05T16:13:29.824Z,792.10
2018-09-05T16:15:58.310Z,782.23
2018-09-05T16:18:26.827Z,787.33
2018-09-05T16:20:55.444Z,789.97
2018-09-05T16:23:23.903Z,787.63
2018-09-05T16:25:52.442Z,791.80
2018-09-05T16:28:20.959Z,784.17
2018-09-05T16:30:49.433Z,802.83
2018-09-05T16:33:17.984Z,806.00
2018-09-05T16:35:46.535Z,810.00
2018-09-05T16:38:15.039Z,817.70
2018-09-05T16:40:43.587Z,820.13
2018-09-05T16:43:12.040Z,832.47
2018-09-05T16:45:40.563Z,838.17
2018-09-05T16:48:09.115Z,820.67
2018-09-05T16:50:37.903Z,828.47
2018-09-05T16:53:06.513Z,823.80
2018-09-05T16:55:35.074Z,821.90
2018-09-05T16:58:03.550Z,821.97
2018-09-05T17:00:32.083Z,817.27
2018-09-05T17:03:00.588Z,820.93
2018-09-05T17:05:29.204Z,816.53
2018-09-05T17:07:57.666Z,824.83
2018-09-05T17:10:26.225Z,824.57
2018-09-05T17:12:54.693Z,811.33
2018-09-05T17:15:23.195Z,814.47
2018-09-05T17:17:51.668Z,823.83
2018-09-05T17:20:21.271Z,824.17
2018-09-05T17:22:50.632Z,815.63
2018-09-05T17:25:19.173Z,815.00
2018-09-05T17:27:47.654Z,823.70
2018-09-05T17:30:16.197Z,836.00
2018-09-05T17:32:44.704Z,842.03
2018-09-05T17:35:13.325Z,856.23
2018-09-05T17:37:41.812Z,881.40
2018-09-05T17:40:10.282Z,899.47
2018-09-05T17:42:39.231Z,902.57
2018-09-05T17:45:14.188Z,916.47
2018-09-05T17:47:48.951Z,933.27
2018-09-05T17:50:31.362Z,948.07
2018-09-05T17:53:03.285Z,939.83
2018-09-05T17:55:41.391Z,954.93
2018-09-05T17:58:14.400Z,962.03
2018-09-05T18:00:47.430Z,973.03
2018-09-05T18:03:22.336Z,984.90
2018-09-05T18:05:57.884Z,992.30
2018-09-05T18:08:35.657Z,996.50
2018-09-05T18:11:07.530Z,998.77
2018-09-05T18:13:49.060Z,999.90
2018-09-05T18:16:25.813Z,999.90
2018-09-05T18:19:03.877Z,999.90
2018-09-05T18:21:40.874Z,999.90
2018-09-05T18:24:14.025Z,977.97
2018-09-05T18:26:42.905Z,976.67
2018-09-05T18:29:11.361Z,961.27
2018-09-05T18:31:39.945Z,958.83
2018-09-05T18:34:08.473Z,968.53
2018-09-05T18:36:36.961Z,950.30
2018-09-05T18:39:07.360Z,930.57
2018-09-05T18:41:35.921Z,939.77
2018-09-05T18:44:04.500Z,952.07
2018-09-05T18:46:33.083Z,964.03
2018-09-05T18:49:01.607Z,957.67
2018-09-05T18:51:30.073Z,959.63
2018-09-05T18:53:58.611Z,938.07
2018-09-05T18:56:27.196Z,939.37
2018-09-05T18:58:55.727Z,918.97
2018-09-05T19:01:24.261Z,908.47
2018-09-05T19:03:52.943Z,906.70
2018-09-05T19:06:21.565Z,882.30
2018-09-05T19:08:50.126Z,895.67
2018-09-05T19:11:18.634Z,900.63
2018-09-05T19:13:47.182Z,887.77
2018-09-05T19:16:15.705Z,885.67
2018-09-05T19:18:44.251Z,889.03
2018-09-05T19:21:12.761Z,905.00
2018-09-05T19:23:41.336Z,896.10
2018-09-05T19:26:09.864Z,908.57
2018-09-05T19:28:38.457Z,918.43
2018-09-05T19:31:06.929Z,889.97
2018-09-05T19:33:35.456Z,921.13
2018-09-05T19:36:03.931Z,887.77
2018-09-05T19:38:32.497Z,886.13
2018-09-05T19:41:01.072Z,900.13
2018-09-05T19:43:29.770Z,867.47
2018-09-05T19:45:58.272Z,839.63
2018-09-05T19:48:27.328Z,829.97
2018-09-05T19:50:56.017Z,843.03
2018-09-05T19:53:24.526Z,830.83
2018-09-05T19:55:53.039Z,818.57
2018-09-05T19:58:21.569Z,812.77
2018-09-05T20:00:50.086Z,784.60
2018-09-05T20:03:18.792Z,791.47
2018-09-05T20:05:47.474Z,709.70
2018-09-05T20:08:16.015Z,705.73
2018-09-05T20:10:44.540Z,667.47
2018-09-05T20:13:13.232Z,699.60
2018-09-05T20:15:41.811Z,649.80
2018-09-05T20:18:10.299Z,624.53
2018-09-05T20:20:38.783Z,597.03
2018-09-05T20:23:07.377Z,566.83
2018-09-05T20:25:36.300Z,544.10
2018-09-05T20:28:04.838Z,487.77
2018-09-05T20:30:33.359Z,500.57
2018-09-05T20:33:02.090Z,483.50
2018-09-05T20:35:30.542Z,537.63
2018-09-05T20:37:59.165Z,577.07
2018-09-05T20:40:27.711Z,586.30
2018-09-05T20:42:56.182Z,626.90
2018-09-05T20:45:24.670Z,640.87
2018-09-05T20:47:53.181Z,632.87
2018-09-05T20:50:21.895Z,630.57
2018-09-05T20:52:50.411Z,633.07
2018-09-05T20:55:19.072Z,634.00
2018-09-05T20:57:47.677Z,665.13
2018-09-05T21:00:16.355Z,652.97
2018-09-05T21:02:45.033Z,671.63
2018-09-05T21:05:13.552Z,679.60
2018-09-05T21:07:42.040Z,659.47
2018-09-05T21:10:10.860Z,693.27
2018-09-05T21:12:39.583Z,674.37
2018-09-05T21:15:08.061Z,678.07
2018-09-05T21:17:36.791Z,667.80
2018-09-05T21:20:05.643Z,676.07
2018-09-05T21:22:34.179Z,685.70
2018-09-05T21:25:02.725Z,666.87
2018-09-05T21:27:31.212Z,679.10
2018-09-05T21:29:59.710Z,704.30
2018-09-05T21:32:28.250Z,690.47
2018-09-05T21:34:56.731Z,655.43
2018-09-05T21:37:26.036Z,679.83
2018-09-05T21:39:54.558Z,660.70
2018-09-05T21:42:23.073Z,677.67
2018-09-05T21:44:51.607Z,678.17
2018-09-05T21:47:20.162Z,687.90
2018-09-05T21:49:48.639Z,663.70
2018-09-05T21:52:17.140Z,667.93
2018-09-05T21:54:45.651Z,658.57
2018-09-05T21:57:14.213Z,642.00
2018-09-05T21:59:42.747Z,690.53
2018-09-05T22:02:11.287Z,656.87
2018-09-05T22:04:39.951Z,673.00
2018-09-05T22:07:08.432Z,685.40
2018-09-05T22:09:37.013Z,677.83
2018-09-05T22:12:05.552Z,701.80
2018-09-05T22:14:34.340Z,716.00
2018-09-05T22:17:02.874Z,712.10
2018-09-05T22:19:31.534Z,744.70
2018-09-05T22:22:00.098Z,756.80
2018-09-05T22:24:28.780Z,777.83
2018-09-05T22:26:57.418Z,760.87
2018-09-05T22:29:26.243Z,762.10
2018-09-05T22:31:54.965Z,800.57
2018-09-05T22:34:23.545Z,805.67
2018-09-05T22:36:52.190Z,799.17
2018-09-05T22:39:20.711Z,812.53
2018-09-05T22:41:49.803Z,804.57
2018-09-05T22:44:29.748Z,854.83
2018-09-05T22:47:09.392Z,848.17
2018-09-05T22:53:10.961Z,846.90
2018-09-05T22:59:54.796Z,798.37
2018-09-05T23:02:41.735Z,778.77
2018-09-05T23:05:21.756Z,853.13
2018-09-05T23:08:01.777Z,829.10
2018-09-05T23:10:42.734Z,834.87
2018-09-05T23:13:22.608Z,822.50
2018-09-05T23:16:02.629Z,807.47
2018-09-05T23:18:42.660Z,821.90
2018-09-05T23:21:26.975Z,785.57
2018-09-05T23:23:59.820Z,770.37
2018-09-05T23:26:28.665Z,778.53
2018-09-05T23:28:57.399Z,817.93
2018-09-05T23:31:26.048Z,811.73
2018-09-05T23:33:54.561Z,803.00
2018-09-05T23:36:23.312Z,821.07
2018-09-05T23:38:51.834Z,817.87
2018-09-05T23:41:20.402Z,806.63
2018-09-05T23:43:49.027Z,803.80
2018-09-05T23:46:17.682Z,778.43
2018-09-05T23:48:46.255Z,779.57
2018-09-05T23:51:14.912Z,773.70
2018-09-05T23:53:43.460Z,775.77
2018-09-05T23:56:11.960Z,773.40
2018-09-05T23:58:40.527Z,754.73
